createdAt,value
2022-11-03T00:01:24.018Z,10.45
2022-11-03T00:06:26.589Z,9.88
2022-11-03T00:11:32.806Z,10.93
2022-11-03T00:16:35.214Z,13.27
2022-11-03T00:21:37.971Z,12.05
2022-11-03T00:26:41.897Z,8.10
2022-11-03T00:31:45.354Z,14.05
2022-11-03T00:41:51.743Z,10.60
2022-11-03T00:46:54.186Z,12.55
2022-11-03T00:51:56.592Z,8.65
2022-11-03T00:57:00.422Z,10.27
2022-11-03T01:02:03.041Z,14.70
2022-11-03T01:07:06.374Z,8.47
2022-11-03T01:12:11.832Z,10.63
2022-11-03T01:17:15.661Z,11.88
2022-11-03T01:22:18.715Z,11.95
2022-11-03T01:27:23.090Z,7.25
2022-11-03T01:32:25.731Z,12.68
2022-11-03T01:37:28.206Z,9.73
2022-11-03T01:42:32.045Z,11.68
2022-11-03T01:47:36.072Z,13.25
2022-11-03T01:52:41.269Z,10.70
2022-11-03T01:57:47.326Z,9.43
2022-11-03T02:02:50.283Z,11.75
2022-11-03T02:07:55.570Z,12.15
2022-11-03T02:12:59.618Z,9.23
2022-11-03T02:18:03.017Z,8.18
2022-11-03T02:28:10.457Z,10.43
2022-11-03T02:33:18.685Z,9.93
2022-11-03T02:38:25.806Z,9.32
2022-11-03T02:43:30.234Z,9.05
2022-11-03T02:48:32.921Z,9.95
2022-11-03T02:53:38.144Z,8.67
2022-11-03T02:58:45.937Z,7.32
2022-11-03T03:03:50.089Z,6.57
2022-11-03T03:08:54.794Z,7.20
2022-11-03T03:13:58.674Z,8.55
2022-11-03T03:19:04.941Z,9.77
2022-11-03T03:24:09.439Z,8.63
2022-11-03T03:29:16.554Z,8.48
2022-11-03T03:34:36.585Z,9.25
2022-11-03T03:39:41.461Z,11.60
2022-11-03T03:44:46.006Z,8.80
2022-11-03T03:49:48.764Z,7.82
2022-11-03T03:54:51.445Z,10.80
2022-11-03T03:59:55.864Z,11.00
2022-11-03T04:05:00.161Z,8.52
2022-11-03T04:10:02.578Z,9.73
2022-11-03T04:15:24.705Z,10.45
2022-11-03T04:20:44.998Z,10.05
2022-11-03T04:25:48.996Z,12.40
2022-11-03T04:30:56.073Z,13.32
2022-11-03T04:36:01.449Z,11.68
2022-11-03T04:41:08.067Z,14.37
2022-11-03T04:46:12.969Z,7.63
2022-11-03T04:51:17.240Z,8.18
2022-11-03T04:56:21.829Z,9.20
2022-11-03T05:01:26.064Z,12.18
2022-11-03T05:06:29.584Z,16.27
2022-11-03T05:16:35.916Z,9.95
2022-11-03T05:21:39.393Z,8.98
2022-11-03T05:31:47.679Z,13.38
2022-11-03T05:36:50.121Z,8.77
2022-11-03T05:41:53.298Z,6.75
2022-11-03T05:46:58.098Z,14.75
2022-11-03T05:52:01.460Z,12.10
2022-11-03T05:57:08.428Z,8.15
2022-11-03T06:02:21.063Z,10.70
2022-11-03T06:07:24.686Z,12.98
2022-11-03T06:12:27.224Z,11.48
2022-11-03T06:17:31.003Z,8.80
2022-11-03T06:22:39.201Z,11.05
2022-11-03T06:27:42.091Z,9.32
2022-11-03T06:32:45.922Z,13.88
2022-11-03T06:37:48.451Z,10.15
2022-11-03T06:42:50.861Z,8.77
2022-11-03T06:47:54.947Z,12.52
2022-11-03T06:52:58.052Z,11.02
2022-11-03T06:58:01.488Z,13.18
2022-11-03T07:08:14.368Z,11.45
2022-11-03T07:13:19.310Z,10.30
2022-11-03T07:18:23.819Z,14.35
2022-11-03T07:23:32.063Z,12.25
2022-11-03T07:28:36.247Z,12.60
2022-11-03T07:33:38.705Z,12.77
2022-11-03T07:38:43.321Z,14.73
2022-11-03T07:43:50.832Z,8.93
2022-11-03T07:48:55.079Z,12.95
2022-11-03T07:54:02.994Z,10.82
2022-11-03T07:59:07.185Z,12.68
2022-11-03T08:04:13.715Z,9.00
2022-11-03T08:09:19.054Z,9.55
2022-11-03T08:14:21.512Z,7.95
2022-11-03T08:19:23.956Z,9.10
2022-11-03T08:24:27.880Z,13.87
2022-11-03T08:29:30.449Z,10.00
2022-11-03T08:34:32.931Z,11.23
2022-11-03T08:39:37.255Z,8.47
2022-11-03T08:44:39.761Z,9.57
2022-11-03T08:49:42.173Z,9.70
2022-11-03T08:54:46.260Z,7.20
2022-11-03T08:59:49.169Z,12.07
2022-11-03T09:04:51.678Z,8.90
2022-11-03T09:15:18.489Z,9.77
2022-11-03T09:20:21.515Z,7.15
2022-11-03T09:25:25.404Z,9.23
2022-11-03T09:30:28.864Z,10.63
2022-11-03T09:35:31.354Z,10.32
2022-11-03T09:40:35.737Z,5.77
2022-11-03T09:45:38.960Z,7.45
2022-11-03T09:50:41.962Z,8.10
2022-11-03T09:55:46.773Z,9.20
2022-11-03T10:00:49.301Z,5.80
2022-11-03T10:05:51.821Z,7.10
2022-11-03T10:10:55.933Z,8.70
2022-11-03T10:16:00.004Z,3.65
2022-11-03T10:21:04.889Z,7.10
2022-11-03T10:26:12.819Z,4.88
2022-11-03T10:31:21.118Z,6.75
2022-11-03T10:36:24.589Z,6.35
2022-11-03T10:41:28.988Z,4.13
2022-11-03T10:51:54.571Z,8.07
2022-11-03T10:56:58.397Z,3.95
2022-11-03T11:02:02.039Z,8.05
2022-11-03T11:07:04.566Z,4.50
2022-11-03T11:12:16.542Z,7.30
2022-11-03T11:17:34.436Z,6.45
2022-11-03T11:22:36.961Z,9.40
2022-11-03T11:28:03.380Z,6.53
2022-11-03T11:33:16.008Z,8.93
2022-11-03T11:38:36.778Z,5.28
2022-11-03T11:43:39.208Z,5.90
2022-11-03T11:48:43.171Z,8.80
2022-11-03T11:53:50.937Z,12.88
2022-11-03T11:58:57.120Z,7.40
2022-11-03T12:04:02.692Z,4.93
2022-11-03T12:09:06.023Z,8.18
2022-11-03T12:19:30.592Z,6.93
2022-11-03T12:24:38.961Z,5.93
2022-11-03T12:29:41.407Z,5.93
2022-11-03T12:34:43.946Z,6.93
2022-11-03T12:39:48.026Z,5.20
2022-11-03T12:44:50.630Z,6.60
2022-11-03T12:49:53.438Z,6.20
2022-11-03T12:54:57.224Z,3.53
2022-11-03T12:59:59.944Z,3.30
2022-11-03T13:05:02.375Z,2.38
2022-11-03T13:10:06.570Z,5.32
2022-11-03T13:15:10.105Z,5.50
2022-11-03T13:20:14.965Z,6.00
2022-11-03T13:25:18.899Z,8.52
2022-11-03T13:30:21.747Z,3.83
2022-11-03T13:35:24.242Z,6.60
2022-11-03T13:40:56.235Z,3.60
2022-11-03T13:45:50.471Z,2.85
2022-11-03T13:50:53.742Z,3.00
2022-11-03T13:56:03.073Z,5.05
2022-11-03T14:01:10.196Z,4.35
2022-11-03T14:06:12.644Z,2.10
2022-11-03T14:11:34.033Z,2.85
2022-11-03T14:16:36.546Z,3.42
2022-11-03T14:21:42.611Z,3.03
2022-11-03T14:26:46.521Z,1.60
2022-11-03T14:31:48.993Z,4.72
2022-11-03T14:36:51.504Z,2.57
2022-11-03T14:42:06.626Z,4.75
2022-11-03T14:47:10.219Z,2.53
2022-11-03T14:52:13.041Z,6.40
2022-11-03T14:57:21.393Z,1.98
2022-11-03T15:02:24.058Z,2.50
2022-11-03T15:07:26.650Z,4.95
2022-11-03T15:12:31.456Z,4.17
2022-11-03T15:17:33.905Z,6.18
2022-11-03T15:28:00.744Z,4.53
2022-11-03T15:33:03.365Z,3.45
2022-11-03T15:38:06.117Z,5.38
2022-11-03T15:43:10.178Z,4.60
2022-11-03T15:48:13.049Z,4.45
2022-11-03T15:53:15.949Z,5.45
2022-11-03T15:58:19.931Z,3.80
2022-11-03T16:03:22.434Z,5.10
2022-11-03T16:08:24.939Z,4.80
2022-11-03T16:13:28.708Z,10.53
2022-11-03T16:18:31.271Z,6.25
2022-11-03T16:23:33.681Z,6.20
2022-11-03T16:28:37.643Z,8.75
2022-11-03T16:33:40.107Z,8.30
2022-11-03T16:38:42.615Z,7.43
2022-11-03T16:43:48.059Z,9.93
2022-11-03T16:48:50.533Z,11.32
2022-11-03T16:53:54.785Z,9.40
2022-11-03T16:58:58.873Z,5.95
2022-11-03T17:04:03.064Z,7.25
2022-11-03T17:09:06.750Z,23.45
2022-11-03T17:14:13.415Z,7.72
2022-11-03T17:19:16.197Z,13.10
2022-11-03T17:24:18.929Z,10.17
2022-11-03T17:29:23.846Z,15.10
2022-11-03T17:34:26.487Z,8.13
2022-11-03T17:39:30.383Z,9.10
2022-11-03T17:44:34.537Z,8.15
2022-11-03T17:49:39.397Z,12.25
2022-11-03T17:54:42.420Z,14.68
2022-11-03T17:59:48.519Z,11.93
2022-11-03T18:04:51.382Z,11.98
2022-11-03T18:09:54.897Z,10.38
2022-11-03T18:20:04.219Z,13.18
2022-11-03T18:25:07.487Z,10.93
2022-11-03T18:30:10.926Z,11.15
2022-11-03T18:40:17.424Z,9.75
2022-11-03T18:45:20.126Z,15.43
2022-11-03T18:50:22.661Z,11.87
2022-11-03T18:55:27.610Z,11.13
2022-11-03T19:00:32.411Z,16.98
2022-11-03T19:05:35.256Z,14.55
2022-11-03T19:10:40.888Z,12.10
2022-11-03T19:15:46.300Z,12.25
2022-11-03T19:20:48.869Z,11.50
2022-11-03T19:25:54.454Z,12.90
2022-11-03T19:30:58.104Z,14.05
2022-11-03T19:36:00.722Z,13.95
2022-11-03T19:41:22.005Z,17.57
2022-11-03T19:46:24.740Z,19.30
2022-11-03T19:51:29.682Z,14.20
2022-11-03T19:56:33.645Z,15.85
2022-11-03T20:01:36.287Z,16.50
2022-11-03T20:06:40.795Z,15.03
2022-11-03T20:11:45.625Z,15.07
2022-11-03T20:16:50.140Z,16.50
2022-11-03T20:21:55.539Z,13.43
2022-11-03T20:27:01.911Z,16.17
2022-11-03T20:32:05.349Z,13.18
2022-11-03T20:37:15.589Z,11.68
2022-11-03T20:42:22.328Z,12.55
2022-11-03T20:47:25.001Z,13.27
2022-11-03T20:52:28.043Z,19.67
2022-11-03T20:57:31.896Z,14.75
2022-11-03T21:02:34.552Z,14.73
2022-11-03T21:07:39.586Z,16.07
2022-11-03T21:12:43.717Z,16.50
2022-11-03T21:18:03.596Z,19.45
2022-11-03T21:23:15.468Z,15.63
2022-11-03T21:28:21.414Z,13.20
2022-11-03T21:33:25.087Z,16.20
2022-11-03T21:38:27.564Z,11.57
2022-11-03T21:43:48.943Z,11.40
2022-11-03T21:49:06.272Z,11.82
2022-11-03T21:54:08.857Z,11.18
2022-11-03T21:59:12.779Z,9.60
2022-11-03T22:04:15.218Z,9.65
2022-11-03T22:09:18.000Z,9.63
2022-11-03T22:14:21.849Z,8.60
2022-11-03T22:19:41.745Z,11.25
2022-11-03T22:25:01.600Z,9.63
2022-11-03T22:30:23.207Z,10.63
2022-11-03T22:35:43.647Z,13.85
2022-11-03T22:41:13.352Z,14.35
2022-11-03T22:46:19.449Z,16.92
2022-11-03T22:51:21.954Z,15.20
2022-11-03T22:56:25.146Z,13.37
2022-11-03T23:01:29.384Z,12.20
2022-11-03T23:06:35.391Z,9.43
2022-11-03T23:11:37.954Z,7.47
2022-11-03T23:16:42.422Z,12.10
2022-11-03T23:21:45.275Z,6.65
2022-11-03T23:26:47.899Z,6.25
2022-11-03T23:31:52.489Z,6.03
2022-11-03T23:36:55.026Z,6.68
2022-11-03T23:41:57.471Z,6.73
2022-11-03T23:47:18.742Z,6.10
2022-11-03T23:52:21.556Z,6.75
2022-11-03T23:57:41.385Z,4.70
